Time;durP1;ratioP1;P1;durP2;ratioP2;P2;SDS_P1;SDS_P2;PMS_P1;PMS_P2;Temp;Humidity;BMP_temperature;BMP_pressure;BME280_temperature;BME280_humidity;BME280_pressure;Samples;Min_cycle;Max_cycle;Signal;HPM_P1;HPM_P2
2023/05/22 00:00:37;;;;;;;3.58;3.20;;;19.20;52.90;;;;;;5094526;28;20171;-85
2023/05/22 00:03:03;;;;;;;3.15;2.85;;;19.20;52.90;;;;;;5094383;28;20155;-85
2023/05/22 00:05:29;;;;;;;3.58;2.97;;;19.30;53.00;;;;;;5094354;28;20181;-85
2023/05/22 00:07:55;;;;;;;2.92;2.72;;;19.20;52.90;;;;;;5094400;28;20207;-86
2023/05/22 00:10:21;;;;;;;3.10;2.80;;;19.20;52.90;;;;;;5094438;28;20152;-85
2023/05/22 00:12:47;;;;;;;3.42;3.13;;;19.20;52.90;;;;;;5077526;28;20251;-85
2023/05/22 00:15:13;;;;;;;3.13;2.80;;;19.20;52.90;;;;;;5094875;28;20160;-85
2023/05/22 00:17:39;;;;;;;3.30;3.00;;;19.20;53.60;;;;;;5094160;28;20164;-84
2023/05/22 00:20:06;;;;;;;4.18;3.15;;;19.20;52.90;;;;;;5076958;28;20520;-86
2023/05/22 00:22:35;;;;;;;3.03;2.70;;;19.20;53.00;;;;;;5077674;28;20216;-84
2023/05/22 00:25:03;;;;;;;3.10;2.88;;;19.20;53.00;;;;;;5094379;28;20172;-85
2023/05/22 00:27:28;;;;;;;2.92;2.63;;;19.20;53.00;;;;;;5077667;28;20198;-85
2023/05/22 00:29:54;;;;;;;3.08;2.75;;;19.20;52.90;;;;;;5094518;28;20157;-84
2023/05/22 00:32:20;;;;;;;3.30;3.00;;;19.20;52.90;;;;;;5077542;28;20169;-84
2023/05/22 00:34:45;;;;;;;3.40;3.10;;;19.20;52.90;;;;;;5094713;28;20161;-84
2023/05/22 00:37:11;;;;;;;2.92;2.70;;;19.20;52.90;;;;;;5077688;28;20165;-84
2023/05/22 00:39:37;;;;;;;3.70;3.05;;;19.20;52.90;;;;;;5094177;28;20253;-85
2023/05/22 00:42:03;;;;;;;3.35;3.05;;;19.20;52.90;;;;;;5077287;28;20247;-84
2023/05/22 00:44:37;;;;;;;3.30;2.92;;;19.20;52.90;;;;;;5093790;28;20621;-85
2023/05/22 00:47:03;;;;;;;3.35;2.80;;;19.20;52.80;;;;;;5094043;28;20221;-84
2023/05/22 00:49:29;;;;;;;3.10;2.80;;;19.20;52.90;;;;;;5077286;28;20165;-85
2023/05/22 00:51:55;;;;;;;3.13;2.80;;;19.20;52.90;;;;;;5093378;28;20164;-85
2023/05/22 00:54:21;;;;;;;3.38;3.00;;;19.20;52.90;;;;;;5093521;28;20145;-85
2023/05/22 00:56:47;;;;;;;3.30;3.00;;;19.20;52.90;;;;;;5076424;28;20164;-84
2023/05/22 00:59:12;;;;;;;3.25;2.95;;;19.20;53.00;;;;;;5076322;28;20271;-84
2023/05/22 01:01:41;;;;;;;2.88;2.65;;;19.20;53.00;;;;;;5093133;28;20282;-85
2023/05/22 01:04:10;;;;;;;3.20;2.90;;;19.20;52.90;;;;;;5076857;28;20263;-85
2023/05/22 01:06:35;;;;;;;3.00;2.70;;;19.20;53.00;;;;;;5093462;28;20210;-86
2023/05/22 01:09:02;;;;;;;3.20;2.88;;;19.10;52.90;;;;;;5093355;28;20232;-84
2023/05/22 01:11:33;;;;;;;3.17;2.88;;;19.20;52.90;;;;;;5093290;28;20152;-84
2023/05/22 01:14:04;;;;;;;3.08;2.78;;;19.20;53.00;;;;;;5076863;28;20210;-84
2023/05/22 01:16:38;;;;;;;3.30;3.00;;;19.20;53.00;;;;;;5093717;28;20610;-85
2023/05/22 01:19:29;;;;;;;3.10;2.80;;;19.20;53.00;;;;;;5076502;28;20196;-85
2023/05/22 01:22:21;;;;;;;3.38;2.80;;;19.10;53.00;;;;;;5080106;28;20238;-84
2023/05/22 01:25:25;;;;;;;3.05;2.75;;;19.20;53.00;;;;;;5113305;28;20686;-86
2023/05/22 01:28:07;;;;;;;2.90;2.70;;;19.10;53.00;;;;;;5096293;28;20171;-85
2023/05/22 01:31:13;;;;;;;3.53;3.00;;;19.10;53.00;;;;;;5083445;28;20172;-85
2023/05/22 01:33:44;;;;;;;3.10;2.80;;;19.10;53.00;;;;;;5087207;28;20522;-85
2023/05/22 01:36:09;;;;;;;3.30;3.00;;;19.10;53.00;;;;;;5101033;28;20206;-85
2023/05/22 01:38:36;;;;;;;3.17;2.88;;;19.10;53.00;;;;;;5100082;28;20637;-85
2023/05/22 01:41:02;;;;;;;3.50;3.20;;;19.10;52.90;;;;;;5100749;28;20145;-85
2023/05/22 01:43:29;;;;;;;3.15;2.85;;;19.10;53.00;;;;;;5083472;28;20190;-85
2023/05/22 01:45:55;;;;;;;3.13;2.83;;;19.10;53.00;;;;;;5100335;28;20287;-85
2023/05/22 01:48:21;;;;;;;3.05;2.75;;;19.10;53.00;;;;;;5100091;28;20188;-84
2023/05/22 01:50:47;;;;;;;2.75;2.55;;;19.10;53.00;;;;;;5083096;28;20167;-85
2023/05/22 01:53:18;;;;;;;3.25;2.92;;;19.10;53.00;;;;;;5100232;28;20182;-85
2023/05/22 01:55:54;;;;;;;3.00;2.80;;;19.10;53.00;;;;;;5083795;28;20648;-85
2023/05/22 01:58:31;;;;;;;3.28;2.97;;;19.10;53.00;;;;;;5084175;28;20167;-85
2023/05/22 02:01:00;;;;;;;3.03;2.72;;;19.10;53.00;;;;;;5101039;28;20160;-85
2023/05/22 02:03:28;;;;;;;3.00;2.70;;;19.20;53.10;;;;;;5100224;28;20645;-85
2023/05/22 02:05:57;;;;;;;3.33;3.03;;;19.10;53.00;;;;;;5108120;28;20187;-82
2023/05/22 02:08:23;;;;;;;3.20;2.90;;;19.10;53.00;;;;;;5095096;28;20168;-82
2023/05/22 02:10:51;;;;;;;3.78;2.88;;;19.10;53.70;;;;;;5111073;28;20171;-82
2023/05/22 02:13:16;;;;;;;3.50;3.20;;;19.10;53.00;;;;;;5094411;28;20168;-83
2023/05/22 02:15:46;;;;;;;3.13;2.83;;;19.10;53.00;;;;;;5111282;28;20160;-83
2023/05/22 02:18:13;;;;;;;3.50;2.80;;;19.10;53.00;;;;;;5130265;28;20148;-82
2023/05/22 02:20:39;;;;;;;3.28;2.97;;;19.10;53.00;;;;;;5111326;28;20634;-82
2023/05/22 02:23:05;;;;;;;3.38;2.90;;;19.10;53.10;;;;;;5107779;28;20283;-83
2023/05/22 02:25:31;;;;;;;3.42;3.13;;;19.10;53.10;;;;;;5091096;28;20201;-82
2023/05/22 02:27:56;;;;;;;3.40;3.10;;;19.10;53.10;;;;;;5107648;28;20160;-82
2023/05/22 02:30:22;;;;;;;3.10;2.80;;;19.10;53.10;;;;;;5108235;28;20187;-82
2023/05/22 02:32:48;;;;;;;2.95;2.75;;;19.10;53.10;;;;;;5108801;28;20614;-83
2023/05/22 02:35:13;;;;;;;3.63;3.13;;;19.00;53.10;;;;;;5108440;28;20175;-82
2023/05/22 02:37:39;;;;;;;3.00;2.70;;;19.10;53.10;;;;;;5107646;28;20160;-82
2023/05/22 02:40:09;;;;;;;3.30;3.00;;;19.10;53.10;;;;;;5107481;28;20148;-82
2023/05/22 02:42:34;;;;;;;3.17;2.88;;;19.10;53.00;;;;;;5108066;28;20163;-82
2023/05/22 02:45:00;;;;;;;3.25;2.95;;;19.10;53.10;;;;;;5090536;28;20220;-82
2023/05/22 02:47:28;;;;;;;3.25;2.95;;;19.10;53.00;;;;;;5108500;28;20212;-82
2023/05/22 02:49:56;;;;;;;3.28;2.97;;;19.10;53.10;;;;;;5091298;28;20172;-82
2023/05/22 02:52:23;;;;;;;3.20;2.90;;;19.10;53.10;;;;;;5091292;28;20164;-82
2023/05/22 02:54:50;;;;;;;3.40;2.90;;;19.10;53.10;;;;;;5107984;28;20156;-82
2023/05/22 02:57:20;;;;;;;2.72;2.50;;;19.00;53.00;;;;;;5090491;28;20172;-82
2023/05/22 02:59:45;;;;;;;3.08;2.78;;;19.00;53.00;;;;;;5106284;28;20243;-82
2023/05/22 03:02:15;;;;;;;2.58;2.38;;;19.00;53.10;;;;;;5090449;28;20191;-82
2023/05/22 03:04:41;;;;;;;2.97;2.67;;;19.10;53.10;;;;;;5106919;28;20161;-82
2023/05/22 03:07:06;;;;;;;3.00;2.70;;;19.00;53.10;;;;;;5090173;28;20192;-81
2023/05/22 03:09:32;;;;;;;2.85;2.58;;;19.00;53.10;;;;;;5106108;28;20157;-82
2023/05/22 03:11:58;;;;;;;3.20;2.90;;;19.10;53.10;;;;;;5089454;28;20161;-81
2023/05/22 03:14:25;;;;;;;3.22;2.92;;;19.00;53.10;;;;;;5104869;28;20200;-82
2023/05/22 03:16:53;;;;;;;4.60;2.72;;;19.00;53.10;;;;;;5105607;28;20630;-82
2023/05/22 03:19:22;;;;;;;3.38;3.08;;;19.00;53.10;;;;;;5089572;28;20650;-82
2023/05/22 03:21:48;;;;;;;3.17;2.70;;;19.10;53.10;;;;;;5088508;28;20160;-82
2023/05/22 03:24:14;;;;;;;3.38;3.08;;;19.00;53.10;;;;;;5105784;28;20582;-82
2023/05/22 03:26:42;;;;;;;3.30;3.00;;;19.00;53.10;;;;;;5088119;28;20201;-82
2023/05/22 03:29:08;;;;;;;3.53;3.17;;;19.00;53.20;;;;;;5105650;28;20169;-82
2023/05/22 03:31:34;;;;;;;3.42;3.13;;;19.00;53.10;;;;;;5106844;28;20192;-82
2023/05/22 03:34:04;;;;;;;3.00;2.70;;;19.10;53.20;;;;;;5104905;28;20288;-82
2023/05/22 03:36:32;;;;;;;3.63;3.00;;;19.00;53.00;;;;;;5105175;28;20150;-82
2023/05/22 03:38:58;;;;;;;3.28;2.97;;;19.00;53.00;;;;;;5105782;28;20514;-82
2023/05/22 03:41:24;;;;;;;3.42;2.80;;;19.00;53.10;;;;;;5088120;28;20173;-82
2023/05/22 03:43:50;;;;;;;3.92;3.20;;;19.10;53.10;;;;;;5105085;28;20176;-82
2023/05/22 03:46:16;;;;;;;3.00;2.70;;;19.10;53.10;;;;;;5086900;28;20287;-84
2023/05/22 03:48:42;;;;;;;3.00;2.70;;;19.00;53.10;;;;;;5086380;28;20232;-84
2023/05/22 03:51:08;;;;;;;3.38;2.90;;;19.00;53.10;;;;;;5085111;28;20160;-84
2023/05/22 03:53:33;;;;;;;3.53;3.17;;;19.00;53.20;;;;;;5102958;28;20153;-85
2023/05/22 03:55:59;;;;;;;3.30;3.00;;;19.00;53.20;;;;;;5102766;28;20149;-84
2023/05/22 03:58:25;;;;;;;3.22;2.85;;;19.00;53.10;;;;;;5086460;28;20168;-84
2023/05/22 04:00:53;;;;;;;3.33;3.00;;;19.00;53.10;;;;;;5087309;28;20179;-84
2023/05/22 04:03:20;;;;;;;3.25;2.95;;;19.00;53.10;;;;;;5103325;28;20152;-84
2023/05/22 04:05:47;;;;;;;3.55;3.20;;;18.90;53.10;;;;;;5103451;28;20662;-84
2023/05/22 04:08:12;;;;;;;3.40;3.00;;;19.00;53.10;;;;;;5103528;28;20168;-83
2023/05/22 04:10:39;;;;;;;3.20;2.90;;;19.00;53.10;;;;;;5103613;28;20160;-84
2023/05/22 04:13:05;;;;;;;3.17;2.80;;;19.00;53.10;;;;;;5103740;28;20156;-83
2023/05/22 04:15:34;;;;;;;3.15;2.85;;;19.00;53.10;;;;;;5086609;28;20173;-84
2023/05/22 04:17:59;;;;;;;3.10;2.80;;;19.00;53.10;;;;;;5087104;28;20228;-84
2023/05/22 04:20:25;;;;;;;3.25;2.95;;;19.00;53.10;;;;;;5086768;28;20199;-84
2023/05/22 04:22:53;;;;;;;3.15;2.85;;;19.00;53.20;;;;;;5103738;28;20681;-84
2023/05/22 04:25:20;;;;;;;3.10;2.80;;;19.00;53.10;;;;;;5102850;28;20232;-84
2023/05/22 04:27:49;;;;;;;3.17;2.88;;;19.00;53.10;;;;;;5102585;28;20236;-84
2023/05/22 04:30:17;;;;;;;3.20;2.90;;;19.00;53.10;;;;;;5102949;28;20239;-84
2023/05/22 04:32:44;;;;;;;2.95;2.67;;;19.00;53.10;;;;;;5084450;28;20172;-84
2023/05/22 04:35:11;;;;;;;3.00;2.70;;;19.00;53.10;;;;;;5084707;28;20172;-84
2023/05/22 04:37:39;;;;;;;3.30;3.00;;;19.00;53.10;;;;;;5099797;28;20149;-83
2023/05/22 04:40:07;;;;;;;2.88;2.53;;;19.00;53.10;;;;;;5083977;28;20177;-84
2023/05/22 04:42:37;;;;;;;3.40;3.10;;;19.00;53.10;;;;;;5083222;28;20176;-83
2023/05/22 04:45:03;;;;;;;3.20;2.90;;;19.00;53.10;;;;;;5099694;28;20164;-84
2023/05/22 04:47:30;;;;;;;3.00;2.70;;;19.00;53.00;;;;;;5100073;28;20180;-84
2023/05/22 04:49:57;;;;;;;3.08;2.78;;;19.00;52.90;;;;;;5098857;28;20239;-84
2023/05/22 04:52:23;;;;;;;3.13;2.83;;;19.10;52.90;;;;;;5099245;28;20148;-84
2023/05/22 04:54:51;;;;;;;3.22;2.92;;;19.00;52.80;;;;;;5098457;28;20619;-83
2023/05/22 04:57:17;;;;;;;3.50;3.20;;;19.10;52.90;;;;;;5098358;28;20159;-82
2023/05/22 04:59:44;;;;;;;2.92;2.70;;;19.10;52.80;;;;;;5082034;28;20194;-82
2023/05/22 05:02:12;;;;;;;2.92;2.67;;;19.10;52.80;;;;;;5095271;28;20165;-82
2023/05/22 05:04:37;;;;;;;3.08;2.78;;;19.10;52.70;;;;;;5076989;28;20240;-82
2023/05/22 05:07:04;;;;;;;3.03;2.72;;;19.10;52.50;;;;;;5077382;28;20288;-82
2023/05/22 05:09:30;;;;;;;3.03;2.72;;;19.10;52.50;;;;;;5079395;28;20236;-82
2023/05/22 05:11:57;;;;;;;3.60;3.30;;;19.10;52.50;;;;;;5077689;28;20185;-82
2023/05/22 05:14:24;;;;;;;3.00;2.70;;;19.20;52.60;;;;;;5077494;28;20481;-82
2023/05/22 05:16:51;;;;;;;3.00;2.70;;;19.20;52.60;;;;;;5061911;28;20180;-82
2023/05/22 05:19:20;;;;;;;3.10;2.63;;;19.20;52.50;;;;;;5078509;28;20612;-82
2023/05/22 05:21:48;;;;;;;3.10;2.80;;;19.20;52.50;;;;;;5079345;28;20174;-82
2023/05/22 05:24:17;;;;;;;3.13;2.83;;;19.20;52.60;;;;;;5095719;28;20216;-82
2023/05/22 05:26:42;;;;;;;3.40;3.10;;;19.20;52.60;;;;;;5099857;28;20203;-82
2023/05/22 05:29:08;;;;;;;2.67;2.47;;;19.20;52.50;;;;;;5098268;28;20149;-82
2023/05/22 05:31:35;;;;;;;3.40;2.97;;;19.20;52.30;;;;;;5098523;28;20168;-82
2023/05/22 05:34:01;;;;;;;2.90;2.70;;;19.20;52.30;;;;;;5097138;28;20601;-82
2023/05/22 05:36:28;;;;;;;2.67;2.47;;;19.30;52.30;;;;;;5082355;28;20206;-85
2023/05/22 05:38:55;;;;;;;2.90;2.60;;;19.20;52.20;;;;;;5084371;28;20173;-84
2023/05/22 05:41:23;;;;;;;3.35;3.00;;;19.30;52.30;;;;;;5099390;28;20180;-84
2023/05/22 05:43:51;;;;;;;3.20;2.90;;;19.30;52.30;;;;;;5084637;28;20202;-85
2023/05/22 05:46:17;;;;;;;3.60;2.88;;;19.30;52.20;;;;;;5086616;28;20204;-85
2023/05/22 05:48:43;;;;;;;3.22;2.92;;;19.30;52.10;;;;;;5117136;28;20224;-84
2023/05/22 05:51:09;;;;;;;3.15;2.88;;;19.30;52.10;;;;;;5109233;28;20172;-84
2023/05/22 05:53:39;;;;;;;3.45;2.70;;;19.30;52.20;;;;;;5108925;28;20152;-82
2023/05/22 05:56:06;;;;;;;2.90;2.70;;;19.30;52.10;;;;;;5090115;28;20186;-83
2023/05/22 05:58:32;;;;;;;2.90;2.67;;;19.30;52.10;;;;;;5092208;28;20205;-82
2023/05/22 06:00:57;;;;;;;3.50;2.50;;;19.40;52.10;;;;;;5091976;28;20199;-80
2023/05/22 06:03:24;;;;;;;3.00;2.70;;;19.40;52.10;;;;;;5091637;28;20240;-80
2023/05/22 06:05:50;;;;;;;3.08;2.78;;;19.40;51.90;;;;;;5074763;28;20193;-81
2023/05/22 06:08:18;;;;;;;2.83;2.63;;;19.40;51.90;;;;;;5094046;28;20168;-80
2023/05/22 06:10:44;;;;;;;3.10;2.80;;;19.50;51.70;;;;;;5112345;28;20191;-81
2023/05/22 06:13:10;;;;;;;2.67;2.47;;;19.50;51.70;;;;;;5093759;28;20619;-82
2023/05/22 06:15:35;;;;;;;3.05;2.75;;;19.50;51.60;;;;;;5112273;28;20160;-82
2023/05/22 06:18:01;;;;;;;3.35;3.00;;;19.60;51.60;;;;;;5096510;28;20164;-80
2023/05/22 06:20:27;;;;;;;2.88;2.55;;;19.60;51.50;;;;;;5096532;28;20545;-81
2023/05/22 06:22:52;;;;;;;2.67;2.47;;;19.60;51.40;;;;;;5113320;28;20254;-80
2023/05/22 06:25:19;;;;;;;2.67;2.45;;;19.70;51.30;;;;;;5114676;28;20290;-81
2023/05/22 06:27:44;;;;;;;2.90;2.60;;;19.70;51.20;;;;;;5094795;28;20176;-82
2023/05/22 06:30:11;;;;;;;3.25;2.30;;;19.70;51.10;;;;;;5057695;28;20173;-82
2023/05/22 06:32:36;;;;;;;3.30;3.00;;;19.70;51.00;;;;;;5057866;28;20232;-82
2023/05/22 06:35:02;;;;;;;4.32;2.80;;;19.70;51.00;;;;;;5075097;28;20178;-82
2023/05/22 06:37:28;;;;;;;2.83;2.60;;;19.70;51.10;;;;;;5056872;28;20527;-81
2023/05/22 06:39:53;;;;;;;2.70;2.50;;;19.70;51.20;;;;;;5073452;28;20607;-80
2023/05/22 06:42:19;;;;;;;3.10;2.65;;;19.70;51.30;;;;;;5073830;28;20166;-79
2023/05/22 06:44:45;;;;;;;3.00;2.70;;;19.60;51.60;;;;;;5073340;28;20193;-79
2023/05/22 06:47:10;;;;;;;2.85;2.53;;;19.50;51.90;;;;;;5073632;28;20208;-79
2023/05/22 06:49:36;;;;;;;3.05;2.78;;;19.40;52.10;;;;;;5062203;28;20181;-79
2023/05/22 06:52:02;;;;;;;3.13;2.83;;;19.30;52.30;;;;;;5036874;28;20186;-81
2023/05/22 06:54:28;;;;;;;2.90;2.55;;;19.40;52.40;;;;;;5053630;28;20807;-80
2023/05/22 06:56:55;;;;;;;3.20;2.70;;;19.30;52.50;;;;;;5055975;28;20176;-81
2023/05/22 06:59:21;;;;;;;3.38;2.95;;;19.30;52.70;;;;;;5023944;28;20177;-82
2023/05/22 07:01:55;;;;;;;2.70;2.50;;;19.30;52.80;;;;;;5054750;28;20187;-84
2023/05/22 07:04:23;;;;;;;2.80;2.50;;;19.30;52.90;;;;;;5089495;28;20185;-86
2023/05/22 07:06:49;;;;;;;4.35;2.40;;;19.30;52.70;;;;;;5059455;28;20217;-86
2023/05/22 07:09:22;;;;;;;4.38;2.60;;;19.40;52.70;;;;;;5083759;28;20287;-87
2023/05/22 07:12:05;;;;;;;4.65;2.80;;;19.40;53.30;;;;;;5066677;28;20189;-85
2023/05/22 07:14:31;;;;;;;2.97;2.67;;;19.50;52.80;;;;;;5020346;28;20182;-84
2023/05/22 07:16:57;;;;;;;2.67;2.30;;;19.40;53.00;;;;;;5041754;28;20189;-84
2023/05/22 07:19:22;;;;;;;5.78;2.78;;;19.40;53.00;;;;;;5040342;28;20722;-85
2023/05/22 07:21:48;;;;;;;2.50;2.30;;;19.30;53.10;;;;;;5044649;28;20235;-84
2023/05/22 07:24:16;;;;;;;3.38;2.50;;;19.30;53.20;;;;;;5079301;28;20220;-82
2023/05/22 07:26:45;;;;;;;2.50;2.30;;;19.40;53.80;;;;;;5048094;28;20217;-82
2023/05/22 07:29:23;;;;;;;2.30;2.10;;;19.50;53.10;;;;;;5047626;28;20158;-86
2023/05/22 07:31:48;;;;;;;2.50;2.30;;;19.50;52.90;;;;;;5044344;28;20208;-84
2023/05/22 07:34:17;;;;;;;4.05;2.60;;;19.60;52.80;;;;;;5028988;28;20174;-85
2023/05/22 07:36:44;;;;;;;3.00;2.45;;;19.50;52.90;;;;;;5060203;28;20178;-87
2023/05/22 07:39:30;;;;;;;2.50;2.30;;;19.60;52.90;;;;;;5058117;28;20300;-80
2023/05/22 07:41:56;;;;;;;3.40;2.40;;;19.60;52.80;;;;;;5059765;28;20251;-83
2023/05/22 07:44:22;;;;;;;3.67;2.45;;;19.70;52.70;;;;;;5097632;28;20190;-83
2023/05/22 07:46:48;;;;;;;2.10;1.90;;;19.70;52.80;;;;;;5095255;28;20201;-84
2023/05/22 07:49:18;;;;;;;2.60;2.40;;;19.80;52.80;;;;;;5093429;28;20164;-83
2023/05/22 07:51:46;;;;;;;2.70;2.20;;;19.70;52.50;;;;;;5069223;28;20187;-83
2023/05/22 07:54:13;;;;;;;3.65;2.33;;;19.70;52.70;;;;;;5094879;28;20160;-81
2023/05/22 07:56:41;;;;;;;3.60;2.40;;;19.70;53.00;;;;;;5092249;28;20183;-83
2023/05/22 07:59:08;;;;;;;2.55;2.30;;;19.80;52.90;;;;;;5108401;28;20240;-84
2023/05/22 08:01:40;;;;;;;2.90;2.25;;;19.80;53.00;;;;;;5096076;28;20678;-82
2023/05/22 08:04:12;;;;;;;3.95;2.55;;;19.70;53.50;;;;;;5080102;28;20175;-83
2023/05/22 08:06:40;;;;;;;2.35;2.15;;;19.70;53.00;;;;;;5084596;28;20195;-81
2023/05/22 08:09:10;;;;;;;3.88;2.60;;;19.70;53.00;;;;;;5101665;28;20684;-83
2023/05/22 08:11:40;;;;;;;4.32;2.40;;;19.80;53.10;;;;;;5084408;28;20641;-84
2023/05/22 08:14:06;;;;;;;2.60;2.40;;;19.80;52.80;;;;;;5104294;28;20577;-85
2023/05/22 08:16:36;;;;;;;2.85;2.55;;;19.80;52.90;;;;;;5082661;28;20195;-80
2023/05/22 08:19:09;;;;;;;2.72;2.50;;;19.80;52.80;;;;;;5076926;28;20183;-83
2023/05/22 08:21:38;;;;;;;2.83;2.60;;;19.80;53.00;;;;;;5090393;28;20193;-83
2023/05/22 08:24:12;;;;;;;2.50;2.30;;;19.80;52.90;;;;;;5092006;28;20223;-82
2023/05/22 08:26:42;;;;;;;3.72;2.60;;;19.80;52.90;;;;;;5068407;28;20196;-85
2023/05/22 08:29:12;;;;;;;3.10;2.80;;;19.80;52.60;;;;;;5083524;28;20255;-84
2023/05/22 08:31:39;;;;;;;3.17;2.75;;;19.90;52.70;;;;;;5079698;28;20324;-84
2023/05/22 08:34:06;;;;;;;3.20;2.90;;;19.90;52.70;;;;;;5114252;28;20176;-83
2023/05/22 08:36:49;;;;;;;5.75;2.60;;;19.90;52.80;;;;;;5076871;28;20177;-82
2023/05/22 08:39:17;;;;;;;2.70;2.50;;;19.80;52.80;;;;;;5080273;28;20203;-84
2023/05/22 08:41:46;;;;;;;2.83;2.30;;;19.90;52.80;;;;;;5090744;28;20192;-82
2023/05/22 08:44:12;;;;;;;2.53;2.33;;;19.80;53.00;;;;;;5094936;28;20157;-80
2023/05/22 08:46:42;;;;;;;3.05;2.60;;;19.90;52.90;;;;;;5079249;28;20285;-86
2023/05/22 08:49:08;;;;;;;2.90;2.60;;;19.90;52.90;;;;;;5083126;28;20320;-81
2023/05/22 08:51:45;;;;;;;2.55;2.35;;;19.90;52.90;;;;;;5085552;28;20157;-86
2023/05/22 08:54:15;;;;;;;3.10;2.50;;;19.90;52.80;;;;;;5084968;28;20160;-82
2023/05/22 08:56:43;;;;;;;2.92;2.40;;;19.90;52.90;;;;;;5057111;28;20623;-81
2023/05/22 08:59:09;;;;;;;2.42;2.20;;;20.00;52.70;;;;;;5081140;28;20169;-82
2023/05/22 09:01:38;;;;;;;3.00;2.70;;;20.10;52.70;;;;;;5058153;28;20302;-82
2023/05/22 09:04:09;;;;;;;3.20;2.90;;;20.00;52.60;;;;;;5068374;28;20662;-83
2023/05/22 09:06:37;;;;;;;3.08;2.53;;;20.00;52.50;;;;;;5088386;28;20247;-82
2023/05/22 09:09:11;;;;;;;9.32;3.30;;;20.00;52.80;;;;;;5081846;28;20222;-82
2023/05/22 09:11:39;;;;;;;3.08;2.40;;;20.10;52.90;;;;;;5067472;28;20207;-80
2023/05/22 09:14:08;;;;;;;3.10;2.80;;;20.10;52.60;;;;;;5054496;28;20177;-79
2023/05/22 09:16:51;;;;;;;3.03;2.60;;;20.00;52.70;;;;;;5054438;28;20208;-82
2023/05/22 09:19:17;;;;;;;4.18;2.72;;;20.10;52.50;;;;;;5064384;28;20260;-84
2023/05/22 09:21:50;;;;;;;4.68;2.80;;;20.10;52.50;;;;;;5033875;28;20691;-80
2023/05/22 09:24:16;;;;;;;5.18;3.00;;;20.10;52.60;;;;;;5086691;28;20746;-83
2023/05/22 09:26:47;;;;;;;8.77;3.30;;;20.10;52.80;;;;;;5090614;28;20215;-86
2023/05/22 09:29:12;;;;;;;12.93;3.60;;;20.00;52.80;;;;;;5074950;28;20249;-85
2023/05/22 09:31:41;;;;;;;11.43;3.33;;;20.00;52.80;;;;;;5089601;28;20208;-82
2023/05/22 09:34:13;;;;;;;9.40;3.10;;;20.00;52.80;;;;;;5057781;28;20177;-85
2023/05/22 09:36:40;;;;;;;8.30;3.22;;;20.00;52.80;;;;;;5073413;28;20177;-83
2023/05/22 09:39:12;;;;;;;9.00;3.40;;;20.10;53.00;;;;;;5065615;28;20169;-88
2023/05/22 09:41:40;;;;;;;5.88;3.15;;;20.10;52.70;;;;;;5036768;28;20209;-88
2023/05/22 09:44:41;;;;;;;6.57;2.95;;;20.10;52.70;;;;;;5064412;28;20170;-85
2023/05/22 09:47:18;;;;;;;6.80;3.10;;;20.00;52.60;;;;;;5067446;28;20574;-84
2023/05/22 09:49:51;;;;;;;3.17;2.80;;;20.10;52.50;;;;;;5002842;28;20179;-86
2023/05/22 09:52:19;;;;;;;5.78;2.75;;;20.10;52.50;;;;;;5006844;28;20249;-87
2023/05/22 09:54:54;;;;;;;5.60;3.10;;;20.00;52.50;;;;;;5025692;28;20179;-86
2023/05/22 09:57:32;;;;;;;5.55;2.95;;;20.10;52.50;;;;;;5025338;28;20215;-85
2023/05/22 10:00:09;;;;;;;6.32;2.97;;;20.10;52.50;;;;;;5023452;28;20190;-83
2023/05/22 10:02:36;;;;;;;3.60;2.47;;;20.10;52.50;;;;;;5034217;28;20195;-84
2023/05/22 10:05:22;;;;;;;;;;;;;;;;;;;;;
2023/05/22 10:07:55;;;;;;;7.28;3.00;;;20.20;52.40;;;;;;4992898;28;20219;-82
2023/05/22 10:10:30;;;;;;;7.63;2.65;;;20.20;52.40;;;;;;5024639;28;20692;-85
2023/05/22 10:12:59;;;;;;;12.80;3.30;;;20.30;52.50;;;;;;5001598;28;20190;-83
2023/05/22 10:15:30;;;;;;;4.03;2.63;;;20.30;52.60;;;;;;5018043;28;20261;-84
2023/05/22 10:17:57;;;;;;;9.75;2.90;;;20.20;52.50;;;;;;5007719;28;20190;-82
2023/05/22 10:20:22;;;;;;;7.75;2.80;;;20.20;52.50;;;;;;5040391;28;20691;-82
2023/05/22 10:22:48;;;;;;;4.65;3.13;;;20.10;52.80;;;;;;5090520;28;20224;-83
2023/05/22 10:25:14;;;;;;;5.55;3.00;;;20.20;52.60;;;;;;5089878;28;20192;-82
2023/05/22 10:27:43;;;;;;;5.75;3.08;;;20.20;52.70;;;;;;5083614;28;20183;-82
2023/05/22 10:30:41;;;;;;;3.80;2.83;;;20.20;52.70;;;;;;5085508;28;20183;-84
2023/05/22 10:33:22;;;;;;;3.42;2.67;;;20.10;52.60;;;;;;5106303;27;20175;-81
2023/05/22 10:35:57;;;;;;;4.45;2.97;;;20.20;52.70;;;;;;5103618;27;20171;-81
2023/05/22 10:38:45;;;;;;;6.53;2.90;;;20.20;52.60;;;;;;5098676;28;20225;-81
2023/05/22 10:41:11;;;;;;;6.63;3.28;;;20.20;52.60;;;;;;5113572;27;20164;-81
2023/05/22 10:43:40;;;;;;;5.03;2.95;;;20.20;52.40;;;;;;5084547;27;20167;-82
2023/05/22 10:46:07;;;;;;;4.85;3.08;;;20.30;52.50;;;;;;5097757;28;20191;-81
2023/05/22 10:48:44;;;;;;;4.32;2.83;;;20.30;52.50;;;;;;5086538;27;20536;-83
2023/05/22 10:51:15;;;;;;;2.95;2.65;;;20.30;52.40;;;;;;5115489;27;20175;-81
2023/05/22 10:53:42;;;;;;;3.10;2.78;;;20.30;52.40;;;;;;5091442;27;20243;-81
2023/05/22 10:56:14;;;;;;;5.70;3.33;;;20.20;52.40;;;;;;5086523;27;20182;-84
2023/05/22 10:58:44;;;;;;;3.22;2.88;;;20.30;52.50;;;;;;5104584;28;20229;-83
2023/05/22 11:01:15;;;;;;;4.18;2.65;;;20.20;52.50;;;;;;5081968;28;20187;-83
2023/05/22 11:04:07;;;;;;;4.20;3.10;;;20.30;52.50;;;;;;5114349;27;20277;-84
2023/05/22 11:06:40;;;;;;;3.70;2.90;;;20.30;52.40;;;;;;5100180;28;20245;-83
2023/05/22 11:09:27;;;;;;;3.80;2.80;;;20.20;52.50;;;;;;5080621;28;20156;-84
2023/05/22 11:12:11;;;;;;;3.30;2.40;;;20.20;52.60;;;;;;5104351;28;20219;-83
2023/05/22 11:14:37;;;;;;;3.67;2.90;;;20.20;52.50;;;;;;5085713;28;20189;-84
2023/05/22 11:17:04;;;;;;;4.50;3.00;;;20.30;52.40;;;;;;5069446;28;20282;-83
2023/05/22 11:19:40;;;;;;;3.28;2.95;;;20.20;52.50;;;;;;5105205;28;20176;-83
2023/05/22 11:22:12;;;;;;;2.95;2.65;;;20.20;52.50;;;;;;5086791;28;20199;-84
2023/05/22 11:24:41;;;;;;;3.95;2.58;;;20.20;52.60;;;;;;5137502;27;20223;-87
2023/05/22 11:27:07;;;;;;;3.25;2.95;;;20.30;52.70;;;;;;5110315;27;20199;-82
2023/05/22 11:29:33;;;;;;;3.22;2.90;;;20.20;52.50;;;;;;5108416;27;20166;-82
2023/05/22 11:31:58;;;;;;;5.28;2.83;;;20.20;52.50;;;;;;5112021;27;20171;-81
2023/05/22 11:34:28;;;;;;;5.28;3.08;;;20.30;52.60;;;;;;5129828;27;20490;-85
2023/05/22 11:36:58;;;;;;;3.20;2.67;;;20.20;52.40;;;;;;5148017;27;20198;-83
2023/05/22 11:39:24;;;;;;;3.42;2.75;;;20.30;52.50;;;;;;5104901;27;20144;-84
2023/05/22 11:41:50;;;;;;;2.70;2.50;;;20.40;52.40;;;;;;5100759;28;20192;-83
2023/05/22 11:44:16;;;;;;;3.92;2.95;;;20.40;52.60;;;;;;5129347;27;20223;-83
2023/05/22 11:46:42;;;;;;;3.22;2.72;;;20.40;52.60;;;;;;5106462;27;20240;-85
2023/05/22 11:49:11;;;;;;;3.40;2.75;;;20.30;52.50;;;;;;5105677;27;20156;-84
2023/05/22 11:51:39;;;;;;;3.58;3.05;;;20.20;52.50;;;;;;5124018;27;20148;-84
2023/05/22 11:54:06;;;;;;;3.88;3.15;;;20.30;52.50;;;;;;5125074;27;20179;-86
2023/05/22 11:56:42;;;;;;;3.20;2.70;;;20.30;52.50;;;;;;5108594;28;20190;-87
2023/05/22 11:59:09;;;;;;;5.55;3.28;;;20.20;52.50;;;;;;5093376;28;20198;-86
2023/05/22 12:01:35;;;;;;;3.00;2.70;;;20.30;52.50;;;;;;5106743;28;20153;-84
2023/05/22 12:04:21;;;;;;;3.10;2.80;;;20.30;52.50;;;;;;5088454;28;20156;-86
2023/05/22 12:06:47;;;;;;;4.28;3.10;;;20.30;52.40;;;;;;5104432;28;20187;-86
2023/05/22 12:09:15;;;;;;;3.97;3.55;;;20.30;52.40;;;;;;5101322;27;20239;-83
2023/05/22 12:11:46;;;;;;;3.92;2.92;;;20.30;52.50;;;;;;5112435;27;20146;-87
2023/05/22 12:14:12;;;;;;;3.08;2.83;;;20.30;53.20;;;;;;5105865;27;20240;-85
2023/05/22 12:16:41;;;;;;;4.65;2.75;;;20.30;52.60;;;;;;5101087;28;20204;-83
2023/05/22 12:19:07;;;;;;;3.05;2.75;;;20.40;52.70;;;;;;5097065;28;20184;-83
2023/05/22 12:21:35;;;;;;;3.25;2.95;;;20.40;52.70;;;;;;5072646;27;20681;-83
2023/05/22 12:24:03;;;;;;;3.95;2.83;;;20.40;52.40;;;;;;5130608;27;20272;-83
2023/05/22 12:26:30;;;;;;;4.25;3.30;;;20.50;52.20;;;;;;5121137;27;20223;-84
2023/05/22 12:28:57;;;;;;;3.30;2.92;;;20.50;52.10;;;;;;5097870;28;20188;-83
2023/05/22 12:31:24;;;;;;;3.95;2.97;;;20.50;52.20;;;;;;5115069;28;20203;-84
2023/05/22 12:33:53;;;;;;;3.75;2.90;;;20.60;52.30;;;;;;5117424;28;20172;-84
2023/05/22 12:36:19;;;;;;;3.83;2.95;;;20.50;52.20;;;;;;5082067;28;20184;-82
2023/05/22 12:38:45;;;;;;;3.03;2.72;;;20.40;52.10;;;;;;5114748;28;20707;-83
2023/05/22 12:41:11;;;;;;;3.22;2.92;;;20.50;52.10;;;;;;5115103;28;20243;-84
2023/05/22 12:43:36;;;;;;;4.30;2.85;;;20.40;52.10;;;;;;5094595;28;20169;-83
2023/05/22 12:46:02;;;;;;;3.33;3.03;;;20.40;52.30;;;;;;5095235;28;20192;-83
2023/05/22 12:48:28;;;;;;;4.07;2.83;;;20.30;52.30;;;;;;5095533;28;20201;-83
2023/05/22 12:50:53;;;;;;;3.47;2.90;;;20.40;52.00;;;;;;5080238;28;20181;-82
2023/05/22 12:53:19;;;;;;;3.38;3.08;;;20.40;52.00;;;;;;5095971;28;20244;-82
2023/05/22 12:55:45;;;;;;;3.10;2.80;;;20.50;51.90;;;;;;5099800;28;20248;-83